| time (UTC) | temp C | wind direction | speed KPH | gust KPH | rain 1hr cm | rain 24hr cm | rain mn cm | humidity % | barometer mb |
| 20260906060038 | 22 | 0 | 0.0 | 3.2 | 0.00 | 0.08 | 0.00 | 91 | 1012.7 |
| 20260906054542 | 22 | 0 | 1.6 | 4.8 | 0.00 | 0.08 | 0.00 | 91 | 1013.0 |
| 20260906053032 | 22 | 0 | 0.0 | 3.2 | 0.00 | 0.08 | 0.00 | 91 | 1013.0 |
| 20260906051537 | 22 | 0 | 0.0 | 3.2 | 0.00 | 0.08 | 0.00 | 91 | 1013.3 |
| 20260906050036 | 22 | 282 | 1.6 | 9.7 | 0.00 | 0.08 | 0.00 | 92 | 1013.4 |
| 20260906044535 | 22 | 265 | 0.0 | 4.8 | 0.00 | 0.08 | 0.00 | 92 | 1013.3 |
| 20260906043037 | 22 | 0 | 0.0 | 3.2 | 0.00 | 0.08 | 0.00 | 92 | 1013.1 |
| 20260906041535 | 22 | 0 | 0.0 | 6.4 | 0.00 | 0.08 | 0.00 | 92 | 1013.2 |
| 20260906040036 | 22 | 264 | 3.2 | 4.8 | 0.00 | 0.08 | 0.00 | 92 | 1013.3 |
| 20260906034551 | 22 | 265 | 3.2 | 9.7 | 0.00 | 0.08 | 0.08 | 92 | 1013.6 |
| 20260906033040 | 23 | 327 | 0.0 | 6.4 | 0.00 | 0.08 | 0.08 | 92 | 1013.6 |
| 20260906031537 | 23 | 325 | 3.2 | 8.0 | 0.00 | 0.08 | 0.08 | 92 | 1013.3 |
| 20260906030036 | 22 | 283 | 1.6 | 4.8 | 0.00 | 0.08 | 0.08 | 92 | 1013.3 |
| 20260906024536 | 22 | 280 | 1.6 | 6.4 | 0.00 | 0.08 | 0.08 | 91 | 1013.4 |
| 20260906023036 | 23 | 0 | 0.0 | 0.0 | 0.00 | 0.08 | 0.08 | 91 | 1013.5 |
| 20260906021542 | 23 | 0 | 0.0 | 0.0 | 0.00 | 0.08 | 0.08 | 91 | 1013.3 |
| 20260906020036 | 23 | 0 | 0.0 | 3.2 | 0.00 | 0.08 | 0.08 | 90 | 1013.2 |
| 20260906014536 | 23 | 0 | 0.0 | 0.0 | 0.00 | 0.08 | 0.08 | 90 | 1013.0 |
| 20260906013035 | 23 | 0 | 0.0 | 0.0 | 0.00 | 0.08 | 0.08 | 90 | 1012.7 |
| 20260906011533 | 23 | 0 | 0.0 | 3.2 | 0.00 | 0.08 | 0.08 | 89 | 1012.8 |
| 20260906010053 | 23 | 244 | 0.0 | 3.2 | 0.00 | 0.08 | 0.08 | 88 | 1012.7 |
| 20260906004541 | 23 | 0 | 0.0 | 4.8 | 0.00 | 0.08 | 0.08 | 88 | 1012.6 |
| 20260906003036 | 24 | 0 | 0.0 | 1.6 | 0.00 | 0.08 | 0.08 | 87 | 1012.4 |
| 20260906001551 | 24 | 0 | 0.0 | 1.6 | 0.00 | 0.08 | 0.08 | 86 | 1012.5 |
| 20260906000036 | 25 | 0 | 0.0 | 6.4 | 0.00 | 0.08 | 0.08 | 85 | 1012.6 |
| 20260905234538 | 25 | 254 | 4.8 | 9.7 | 0.00 | 0.08 | 0.08 | 84 | 1012.2 |
| 20260905233035 | 25 | 255 | 6.4 | 8.0 | 0.00 | 0.08 | 0.08 | 81 | 1012.0 |
| 20260905231536 | 26 | 72 | 0.0 | 4.8 | 0.00 | 0.08 | 0.08 | 79 | 1011.7 |
| 20260905230038 | 26 | 0 | 0.0 | 4.8 | 0.00 | 0.08 | 0.08 | 79 | 1012.0 |
| 20260905224536 | 25 | 291 | 1.6 | 4.8 | 0.00 | 0.08 | 0.08 | 81 | 1012.2 |
| 20260905223047 | 25 | 0 | 0.0 | 1.6 | 0.00 | 0.08 | 0.08 | 81 | 1012.2 |
| 20260905221543 | 25 | 0 | 0.0 | 3.2 | 0.00 | 0.08 | 0.08 | 81 | 1012.1 |
| 20260905220038 | 25 | 28 | 0.0 | 3.2 | 0.00 | 0.08 | 0.08 | 82 | 1011.9 |
| 20260905214544 | 25 | 0 | 0.0 | 3.2 | 0.00 | 0.08 | 0.08 | 82 | 1012.1 |
| 20260905213038 | 25 | 0 | 0.0 | 3.2 | 0.00 | 0.08 | 0.08 | 82 | 1012.5 |
| 20260905211535 | 24 | 319 | 0.0 | 8.0 | 0.00 | 0.08 | 0.08 | 82 | 1012.6 |
| 20260905210045 | 24 | 327 | 4.8 | 12.9 | 0.00 | 0.08 | 0.08 | 82 | 1012.7 |
| 20260905204536 | 23 | 333 | 4.8 | 9.7 | 0.00 | 0.08 | 0.08 | 84 | 1012.7 |
| 20260905203037 | 23 | 309 | 4.8 | 12.9 | 0.00 | 0.08 | 0.08 | 86 | 1012.7 |
| 20260905201537 | 23 | 297 | 4.8 | 14.5 | 0.00 | 0.08 | 0.08 | 88 | 1012.8 |
| 20260905200106 | 23 | 279 | 6.4 | 12.9 | 0.03 | 0.08 | 0.08 | 88 | 1013.1 |
| 20260905194537 | 23 | 0 | 0.0 | 9.7 | 0.08 | 0.08 | 0.08 | 87 | 1014.1 |
| 20260905193039 | 23 | 315 | 3.2 | 16.1 | 0.08 | 0.08 | 0.08 | 85 | 1013.5 |
| 20260905191535 | 23 | 277 | 4.8 | 19.3 | 0.08 | 0.08 | 0.08 | 82 | 1013.7 |
| 20260905190034 | 26 | 248 | 8.0 | 29.0 | 0.03 | 0.03 | 0.03 | 74 | 1013.7 |
| 20260905184545 | 28 | 308 | 12.9 | 27.4 | 0.00 | 0.00 | 0.00 | 66 | 1012.8 |
| 20260905183041 | 35 | 338 | 9.7 | 24.1 | 0.00 | 0.00 | 0.00 | 51 | 1012.7 |
| 20260905181545 | 35 | 94 | 4.8 | 12.9 | 0.00 | 0.00 | 0.00 | 47 | 1012.7 |
| 20260905180040 | 35 | 63 | 3.2 | 16.1 | 0.00 | 0.00 | 0.00 | 48 | 1012.8 |
| 20260905174535 | 35 | 115 | 3.2 | 12.9 | 0.00 | 0.00 | 0.00 | 51 | 1012.9 |
| 20260905173043 | 35 | 332 | 4.8 | 12.9 | 0.00 | 0.00 | 0.00 | 49 | 1013.2 |
| 20260905171538 | 34 | 60 | 4.8 | 12.9 | 0.00 | 0.00 | 0.00 | 52 | 1013.1 |
| 20260905170036 | 34 | 36 | 3.2 | 14.5 | 0.00 | 0.00 | 0.00 | 55 | 1013.5 |
| 20260905164537 | 34 | 310 | 4.8 | 8.0 | 0.00 | 0.00 | 0.00 | 53 | 1013.9 |
| 20260905163035 | 33 | 47 | 4.8 | 12.9 | 0.00 | 0.00 | 0.00 | 55 | 1014.1 |
| 20260905161537 | 33 | 296 | 4.8 | 12.9 | 0.00 | 0.00 | 0.00 | 58 | 1014.2 |
| 20260905160036 | 33 | 329 | 3.2 | 8.0 | 0.00 | 0.00 | 0.00 | 58 | 1014.2 |
| 20260905154536 | 32 | 266 | 3.2 | 11.3 | 0.00 | 0.00 | 0.00 | 62 | 1014.4 |
| 20260905153037 | 32 | 266 | 6.4 | 11.3 | 0.00 | 0.00 | 0.00 | 63 | 1014.5 |
| 20260905151541 | 31 | 292 | 1.6 | 4.8 | 0.00 | 0.00 | 0.00 | 65 | 1014.6 |
| 20260905150040 | 30 | 279 | 1.6 | 6.4 | 0.00 | 0.00 | 0.00 | 68 | 1014.7 |
| 20260905144543 | 30 | 286 | 3.2 | 11.3 | 0.00 | 0.00 | 0.00 | 72 | 1014.7 |
| 20260905143039 | 29 | 281 | 4.8 | 9.7 | 0.00 | 0.00 | 0.00 | 73 | 1014.7 |
| 20260905141536 | 28 | 276 | 3.2 | 11.3 | 0.00 | 0.00 | 0.00 | 77 | 1014.9 |
| 20260905140039 | 28 | 243 | 4.8 | 11.3 | 0.00 | 0.00 | 0.00 | 78 | 1015.0 |
| 20260905134539 | 27 | 275 | 1.6 | 4.8 | 0.00 | 0.00 | 0.00 | 80 | 1015.1 |
| 20260905133038 | 26 | 0 | 0.0 | 4.8 | 0.00 | 0.00 | 0.00 | 84 | 1015.1 |
| 20260905131550 | 25 | 0 | 1.6 | 4.8 | 0.00 | 0.00 | 0.00 | 87 | 1015.2 |
| 20260905130034 | 25 | 0 | 1.6 | 6.4 | 0.00 | 0.00 | 0.00 | 89 | 1015.1 |
| 20260905124536 | 24 | 264 | 0.0 | 4.8 | 0.00 | 0.00 | 0.00 | 91 | 1015.0 |
| 20260905123057 | 23 | 264 | 0.0 | 4.8 | 0.00 | 0.00 | 0.00 | 92 | 1014.9 |
| 20260905121535 | 23 | 0 | 0.0 | 3.2 | 0.00 | 0.00 | 0.00 | 92 | 1014.9 |
| 20260905120041 | 22 | 0 | 0.0 | 4.8 | 0.00 | 0.00 | 0.00 | 91 | 1014.9 |
| 20260905114537 | 22 | 0 | 0.0 | 1.6 | 0.00 | 0.00 | 0.00 | 91 | 1014.7 |
| 20260905113035 | 22 | 0 | 0.0 | 4.8 | 0.00 | 0.00 | 0.00 | 91 | 1014.5 |
| 20260905111536 | 22 | 265 | 1.6 | 4.8 | 0.00 | 0.00 | 0.00 | 91 | 1014.3 |
| 20260905110038 | 22 | 0 | 0.0 | 4.8 | 0.00 | 0.00 | 0.00 | 90 | 1014.1 |
| 20260905104535 | 22 | 242 | 0.0 | 3.2 | 0.00 | 0.00 | 0.00 | 90 | 1014.0 |
| 20260905103042 | 23 | 0 | 0.0 | 0.0 | 0.00 | 0.00 | 0.00 | 90 | 1014.0 |
| 20260905101607 | 23 | 0 | 0.0 | 0.0 | 0.00 | 0.00 | 0.00 | 89 | 1013.7 |
| 20260905100051 | 23 | 0 | 0.0 | 1.6 | 0.00 | 0.00 | 0.00 | 89 | 1013.8 |
| 20260905094536 | 23 | 0 | 0.0 | 3.2 | 0.00 | 0.00 | 0.00 | 89 | 1013.6 |
| 20260905093034 | 23 | 0 | 0.0 | 0.0 | 0.00 | 0.00 | 0.00 | 89 | 1013.7 |
| 20260905091542 | 23 | 0 | 0.0 | 0.0 | 0.00 | 0.00 | 0.00 | 89 | 1013.8 |
| 20260905090038 | 23 | 0 | 0.0 | 0.0 | 0.00 | 0.00 | 0.00 | 88 | 1013.7 |
| 20260905084534 | 23 | 0 | 0.0 | 0.0 | 0.00 | 0.00 | 0.00 | 88 | 1013.9 |
| 20260905083033 | 23 | 0 | 0.0 | 0.0 | 0.00 | 0.00 | 0.00 | 88 | 1014.0 |
| 20260905081537 | 23 | 0 | 0.0 | 0.0 | 0.00 | 0.00 | 0.00 | 87 | 1014.1 |
| 20260905074536 | 24 | 0 | 0.0 | 0.0 | 0.00 | 0.00 | 0.00 | 87 | 1014.3 |
| 20260905073036 | 24 | 0 | 0.0 | 0.0 | 0.00 | 0.00 | 0.00 | 86 | 1014.3 |
| 20260905071537 | 24 | 0 | 0.0 | 0.0 | 0.00 | 0.00 | 0.00 | 86 | 1014.4 |
| 20260905070048 | 25 | 0 | 0.0 | 0.0 | 0.00 | 0.00 | 0.00 | 85 | 1014.4 |
| 20260905064542 | 25 | 0 | 0.0 | 0.0 | 0.00 | 0.00 | 0.00 | 85 | 1014.4 |
| 20260905063038 | 25 | 0 | 0.0 | 0.0 | 0.00 | 0.00 | 0.00 | 84 | 1014.6 |
| 20260905061540 | 25 | 0 | 0.0 | 0.0 | 0.00 | 0.00 | 0.00 | 84 | 1014.7 |